sensor_id;sensor_type;location;lat;lon;timestamp;P1;durP1;ratioP1;P2;durP2;ratioP2
75781;SDS011;64400;44.762;37.698;2023-03-31T00:02:04;15.48;;;8.40;;
75781;SDS011;64400;44.762;37.698;2023-03-31T00:04:40;18.35;;;8.95;;
75781;SDS011;64400;44.762;37.698;2023-03-31T00:07:13;20.10;;;9.95;;
75781;SDS011;64400;44.762;37.698;2023-03-31T00:09:43;18.23;;;10.48;;
75781;SDS011;64400;44.762;37.698;2023-03-31T00:12:13;14.43;;;7.55;;
75781;SDS011;64400;44.762;37.698;2023-03-31T00:14:44;9.90;;;5.03;;
75781;SDS011;64400;44.762;37.698;2023-03-31T00:17:14;8.35;;;5.45;;
75781;SDS011;64400;44.762;37.698;2023-03-31T00:19:42;7.80;;;5.25;;
75781;SDS011;64400;44.762;37.698;2023-03-31T00:22:22;9.85;;;5.50;;
75781;SDS011;64400;44.762;37.698;2023-03-31T00:24:54;9.38;;;5.97;;
75781;SDS011;64400;44.762;37.698;2023-03-31T00:27:33;7.88;;;5.15;;
75781;SDS011;64400;44.762;37.698;2023-03-31T00:30:02;10.15;;;5.85;;
75781;SDS011;64400;44.762;37.698;2023-03-31T00:32:33;11.15;;;5.70;;
75781;SDS011;64400;44.762;37.698;2023-03-31T00:35:03;8.75;;;5.25;;
75781;SDS011;64400;44.762;37.698;2023-03-31T00:37:33;10.07;;;5.70;;
75781;SDS011;64400;44.762;37.698;2023-03-31T00:40:21;7.50;;;5.25;;
75781;SDS011;64400;44.762;37.698;2023-03-31T00:43:09;7.20;;;5.18;;
75781;SDS011;64400;44.762;37.698;2023-03-31T00:46:21;8.43;;;5.60;;
75781;SDS011;64400;44.762;37.698;2023-03-31T00:48:57;8.43;;;5.25;;
75781;SDS011;64400;44.762;37.698;2023-03-31T00:51:28;9.32;;;5.60;;
75781;SDS011;64400;44.762;37.698;2023-03-31T00:54:00;8.48;;;5.47;;
75781;SDS011;64400;44.762;37.698;2023-03-31T00:56:35;10.52;;;5.90;;
75781;SDS011;64400;44.762;37.698;2023-03-31T00:59:10;9.20;;;5.57;;
75781;SDS011;64400;44.762;37.698;2023-03-31T01:01:40;11.00;;;5.97;;
75781;SDS011;64400;44.762;37.698;2023-03-31T01:04:38;11.15;;;5.70;;
75781;SDS011;64400;44.762;37.698;2023-03-31T01:07:17;7.85;;;5.53;;
75781;SDS011;64400;44.762;37.698;2023-03-31T01:10:27;10.35;;;6.00;;
75781;SDS011;64400;44.762;37.698;2023-03-31T01:12:59;9.05;;;5.53;;
75781;SDS011;64400;44.762;37.698;2023-03-31T01:15:48;10.48;;;6.18;;
75781;SDS011;64400;44.762;37.698;2023-03-31T01:18:18;8.68;;;5.93;;
75781;SDS011;64400;44.762;37.698;2023-03-31T01:23:53;12.45;;;7.82;;
75781;SDS011;64400;44.762;37.698;2023-03-31T01:32:55;14.40;;;8.30;;
75781;SDS011;64400;44.762;37.698;2023-03-31T01:38:26;15.40;;;9.18;;
75781;SDS011;64400;44.762;37.698;2023-03-31T01:41:19;19.77;;;9.43;;
75781;SDS011;64400;44.762;37.698;2023-03-31T01:43:53;22.23;;;10.43;;
75781;SDS011;64400;44.762;37.698;2023-03-31T01:47:01;22.33;;;10.85;;
75781;SDS011;64400;44.762;37.698;2023-03-31T01:50:00;17.20;;;9.13;;
75781;SDS011;64400;44.762;37.698;2023-03-31T01:52:57;18.73;;;9.07;;
75781;SDS011;64400;44.762;37.698;2023-03-31T01:55:45;17.40;;;8.35;;
75781;SDS011;64400;44.762;37.698;2023-03-31T01:58:23;15.95;;;8.23;;
75781;SDS011;64400;44.762;37.698;2023-03-31T02:01:14;15.25;;;8.85;;
75781;SDS011;64400;44.762;37.698;2023-03-31T02:04:02;16.20;;;8.13;;
75781;SDS011;64400;44.762;37.698;2023-03-31T02:06:38;15.40;;;7.80;;
75781;SDS011;64400;44.762;37.698;2023-03-31T02:09:12;14.48;;;7.97;;
75781;SDS011;64400;44.762;37.698;2023-03-31T02:11:43;12.40;;;7.75;;
75781;SDS011;64400;44.762;37.698;2023-03-31T02:14:33;11.05;;;6.72;;
75781;SDS011;64400;44.762;37.698;2023-03-31T02:17:06;10.80;;;6.47;;
75781;SDS011;64400;44.762;37.698;2023-03-31T02:19:40;10.25;;;6.45;;
75781;SDS011;64400;44.762;37.698;2023-03-31T02:22:11;10.95;;;5.07;;
75781;SDS011;64400;44.762;37.698;2023-03-31T02:25:01;7.53;;;5.65;;
75781;SDS011;64400;44.762;37.698;2023-03-31T02:34:22;6.75;;;4.10;;
75781;SDS011;64400;44.762;37.698;2023-03-31T02:43:31;11.40;;;5.22;;
75781;SDS011;64400;44.762;37.698;2023-03-31T02:46:21;19.70;;;9.93;;
75781;SDS011;64400;44.762;37.698;2023-03-31T02:49:13;79.47;;;33.38;;
75781;SDS011;64400;44.762;37.698;2023-03-31T02:54:55;49.40;;;22.50;;
75781;SDS011;64400;44.762;37.698;2023-03-31T03:04:10;23.10;;;11.02;;
75781;SDS011;64400;44.762;37.698;2023-03-31T03:12:27;11.35;;;5.63;;
75781;SDS011;64400;44.762;37.698;2023-03-31T03:27:20;6.30;;;3.10;;
75781;SDS011;64400;44.762;37.698;2023-03-31T03:43:13;4.65;;;2.70;;
75781;SDS011;64400;44.762;37.698;2023-03-31T03:45:41;7.78;;;3.05;;
75781;SDS011;64400;44.762;37.698;2023-03-31T03:51:01;5.68;;;2.42;;
75781;SDS011;64400;44.762;37.698;2023-03-31T03:53:30;5.43;;;2.65;;
75781;SDS011;64400;44.762;37.698;2023-03-31T03:55:58;4.60;;;2.28;;
75781;SDS011;64400;44.762;37.698;2023-03-31T03:58:37;6.22;;;3.53;;
75781;SDS011;64400;44.762;37.698;2023-03-31T04:01:24;9.73;;;5.20;;
75781;SDS011;64400;44.762;37.698;2023-03-31T04:06:49;13.23;;;8.43;;
75781;SDS011;64400;44.762;37.698;2023-03-31T04:12:36;14.43;;;8.10;;
75781;SDS011;64400;44.762;37.698;2023-03-31T04:15:15;16.45;;;8.30;;
75781;SDS011;64400;44.762;37.698;2023-03-31T04:17:45;14.02;;;7.53;;
75781;SDS011;64400;44.762;37.698;2023-03-31T04:20:17;16.27;;;9.23;;
75781;SDS011;64400;44.762;37.698;2023-03-31T04:22:48;19.52;;;8.95;;
75781;SDS011;64400;44.762;37.698;2023-03-31T04:28:35;12.23;;;5.40;;
75781;SDS011;64400;44.762;37.698;2023-03-31T04:31:04;8.70;;;4.13;;
75781;SDS011;64400;44.762;37.698;2023-03-31T04:33:42;9.95;;;5.85;;
75781;SDS011;64400;44.762;37.698;2023-03-31T04:39:22;8.35;;;4.07;;
75781;SDS011;64400;44.762;37.698;2023-03-31T04:45:16;10.05;;;3.80;;
75781;SDS011;64400;44.762;37.698;2023-03-31T04:47:44;7.40;;;3.63;;
75781;SDS011;64400;44.762;37.698;2023-03-31T04:50:12;9.93;;;4.40;;
75781;SDS011;64400;44.762;37.698;2023-03-31T04:52:43;9.85;;;4.40;;
75781;SDS011;64400;44.762;37.698;2023-03-31T04:55:11;9.90;;;4.45;;
75781;SDS011;64400;44.762;37.698;2023-03-31T05:03:55;12.88;;;5.93;;
75781;SDS011;64400;44.762;37.698;2023-03-31T05:09:33;11.93;;;6.38;;
75781;SDS011;64400;44.762;37.698;2023-03-31T05:21:54;14.07;;;7.07;;
75781;SDS011;64400;44.762;37.698;2023-03-31T05:30:58;19.25;;;8.75;;
75781;SDS011;64400;44.762;37.698;2023-03-31T05:33:34;26.10;;;9.70;;
75781;SDS011;64400;44.762;37.698;2023-03-31T05:36:30;17.00;;;7.78;;
75781;SDS011;64400;44.762;37.698;2023-03-31T05:39:19;9.30;;;4.30;;
75781;SDS011;64400;44.762;37.698;2023-03-31T05:42:09;3.75;;;1.85;;
75781;SDS011;64400;44.762;37.698;2023-03-31T05:51:28;4.88;;;2.22;;
75781;SDS011;64400;44.762;37.698;2023-03-31T05:57:10;4.13;;;1.77;;
75781;SDS011;64400;44.762;37.698;2023-03-31T05:59:38;5.32;;;2.00;;
75781;SDS011;64400;44.762;37.698;2023-03-31T06:02:10;3.67;;;1.88;;
75781;SDS011;64400;44.762;37.698;2023-03-31T06:04:40;5.55;;;2.00;;
75781;SDS011;64400;44.762;37.698;2023-03-31T06:07:08;3.55;;;1.40;;
75781;SDS011;64400;44.762;37.698;2023-03-31T06:09:36;3.83;;;1.73;;
75781;SDS011;64400;44.762;37.698;2023-03-31T06:12:04;5.18;;;2.00;;
75781;SDS011;64400;44.762;37.698;2023-03-31T06:14:32;5.72;;;1.70;;
75781;SDS011;64400;44.762;37.698;2023-03-31T06:22:57;5.00;;;1.70;;
75781;SDS011;64400;44.762;37.698;2023-03-31T06:25:45;3.20;;;1.83;;
75781;SDS011;64400;44.762;37.698;2023-03-31T06:28:34;3.20;;;1.50;;
75781;SDS011;64400;44.762;37.698;2023-03-31T06:31:23;4.03;;;1.67;;
75781;SDS011;64400;44.762;37.698;2023-03-31T06:34:12;3.72;;;1.45;;
75781;SDS011;64400;44.762;37.698;2023-03-31T06:37:03;3.33;;;1.83;;
75781;SDS011;64400;44.762;37.698;2023-03-31T06:39:37;5.93;;;1.88;;
75781;SDS011;64400;44.762;37.698;2023-03-31T06:42:25;4.00;;;2.25;;
75781;SDS011;64400;44.762;37.698;2023-03-31T06:44:55;3.28;;;1.55;;
75781;SDS011;64400;44.762;37.698;2023-03-31T06:47:25;3.85;;;1.50;;
75781;SDS011;64400;44.762;37.698;2023-03-31T06:50:14;2.90;;;1.40;;
75781;SDS011;64400;44.762;37.698;2023-03-31T06:55:43;3.72;;;1.23;;
75781;SDS011;64400;44.762;37.698;2023-03-31T06:58:12;2.75;;;1.13;;
75781;SDS011;64400;44.762;37.698;2023-03-31T07:00:43;4.25;;;1.80;;
75781;SDS011;64400;44.762;37.698;2023-03-31T07:03:13;3.53;;;1.20;;
75781;SDS011;64400;44.762;37.698;2023-03-31T07:05:49;3.65;;;1.50;;
75781;SDS011;64400;44.762;37.698;2023-03-31T07:08:19;1.83;;;1.08;;
75781;SDS011;64400;44.762;37.698;2023-03-31T07:10:48;5.60;;;1.63;;
75781;SDS011;64400;44.762;37.698;2023-03-31T07:13:20;5.65;;;1.65;;
75781;SDS011;64400;44.762;37.698;2023-03-31T07:15:48;3.75;;;1.50;;
75781;SDS011;64400;44.762;37.698;2023-03-31T07:18:17;3.72;;;1.40;;
75781;SDS011;64400;44.762;37.698;2023-03-31T07:20:47;4.20;;;1.55;;
75781;SDS011;64400;44.762;37.698;2023-03-31T07:23:17;3.70;;;1.75;;
75781;SDS011;64400;44.762;37.698;2023-03-31T07:25:46;3.65;;;1.52;;
75781;SDS011;64400;44.762;37.698;2023-03-31T07:28:15;3.90;;;1.60;;
75781;SDS011;64400;44.762;37.698;2023-03-31T07:30:43;4.65;;;1.88;;
75781;SDS011;64400;44.762;37.698;2023-03-31T07:33:11;3.13;;;1.40;;
75781;SDS011;64400;44.762;37.698;2023-03-31T07:35:39;7.07;;;2.00;;
75781;SDS011;64400;44.762;37.698;2023-03-31T07:38:08;3.78;;;1.33;;
75781;SDS011;64400;44.762;37.698;2023-03-31T07:40:38;5.35;;;1.77;;
75781;SDS011;64400;44.762;37.698;2023-03-31T07:43:07;3.72;;;1.63;;
75781;SDS011;64400;44.762;37.698;2023-03-31T07:45:35;3.78;;;1.48;;
75781;SDS011;64400;44.762;37.698;2023-03-31T07:48:05;3.85;;;1.25;;
75781;SDS011;64400;44.762;37.698;2023-03-31T07:50:33;3.78;;;1.38;;
75781;SDS011;64400;44.762;37.698;2023-03-31T07:53:04;5.03;;;1.77;;
75781;SDS011;64400;44.762;37.698;2023-03-31T07:55:32;4.45;;;1.48;;
75781;SDS011;64400;44.762;37.698;2023-03-31T07:58:06;3.88;;;2.05;;
75781;SDS011;64400;44.762;37.698;2023-03-31T08:00:34;5.88;;;2.00;;
75781;SDS011;64400;44.762;37.698;2023-03-31T08:03:08;5.20;;;2.15;;
75781;SDS011;64400;44.762;37.698;2023-03-31T08:05:36;6.10;;;1.90;;
75781;SDS011;64400;44.762;37.698;2023-03-31T08:08:04;4.03;;;2.17;;
75781;SDS011;64400;44.762;37.698;2023-03-31T08:10:38;4.75;;;2.05;;
75781;SDS011;64400;44.762;37.698;2023-03-31T08:13:10;4.30;;;1.73;;
75781;SDS011;64400;44.762;37.698;2023-03-31T08:15:38;7.00;;;2.10;;
75781;SDS011;64400;44.762;37.698;2023-03-31T08:18:12;4.90;;;1.90;;
75781;SDS011;64400;44.762;37.698;2023-03-31T08:20:40;3.85;;;1.60;;
75781;SDS011;64400;44.762;37.698;2023-03-31T08:23:11;4.80;;;1.75;;
75781;SDS011;64400;44.762;37.698;2023-03-31T08:25:38;5.80;;;1.92;;
75781;SDS011;64400;44.762;37.698;2023-03-31T08:28:06;4.43;;;1.60;;
75781;SDS011;64400;44.762;37.698;2023-03-31T08:30:36;4.75;;;1.90;;
75781;SDS011;64400;44.762;37.698;2023-03-31T08:33:05;3.83;;;1.50;;
75781;SDS011;64400;44.762;37.698;2023-03-31T08:35:40;3.75;;;1.27;;
75781;SDS011;64400;44.762;37.698;2023-03-31T08:38:08;5.88;;;1.50;;
75781;SDS011;64400;44.762;37.698;2023-03-31T08:40:36;3.30;;;1.23;;
75781;SDS011;64400;44.762;37.698;2023-03-31T08:43:09;4.50;;;1.80;;
75781;SDS011;64400;44.762;37.698;2023-03-31T08:45:42;3.88;;;1.83;;
75781;SDS011;64400;44.762;37.698;2023-03-31T08:48:24;3.25;;;1.48;;
75781;SDS011;64400;44.762;37.698;2023-03-31T08:51:00;3.75;;;1.50;;
75781;SDS011;64400;44.762;37.698;2023-03-31T08:53:36;3.40;;;1.50;;
75781;SDS011;64400;44.762;37.698;2023-03-31T08:56:14;3.30;;;1.23;;
75781;SDS011;64400;44.762;37.698;2023-03-31T08:58:44;2.83;;;1.25;;
75781;SDS011;64400;44.762;37.698;2023-03-31T09:06:52;3.35;;;1.42;;
75781;SDS011;64400;44.762;37.698;2023-03-31T09:09:38;4.25;;;1.75;;
75781;SDS011;64400;44.762;37.698;2023-03-31T09:12:22;5.53;;;1.48;;
75781;SDS011;64400;44.762;37.698;2023-03-31T09:14:59;4.05;;;1.75;;
75781;SDS011;64400;44.762;37.698;2023-03-31T09:17:29;3.55;;;1.50;;
75781;SDS011;64400;44.762;37.698;2023-03-31T09:22:37;7.55;;;1.88;;
75781;SDS011;64400;44.762;37.698;2023-03-31T09:25:27;9.15;;;1.85;;
75781;SDS011;64400;44.762;37.698;2023-03-31T09:28:01;3.45;;;1.50;;
75781;SDS011;64400;44.762;37.698;2023-03-31T09:30:32;5.88;;;1.90;;
75781;SDS011;64400;44.762;37.698;2023-03-31T09:36:01;2.20;;;1.23;;
75781;SDS011;64400;44.762;37.698;2023-03-31T09:38:41;2.58;;;1.42;;
75781;SDS011;64400;44.762;37.698;2023-03-31T09:41:11;6.18;;;1.73;;
75781;SDS011;64400;44.762;37.698;2023-03-31T09:43:41;3.72;;;1.52;;
75781;SDS011;64400;44.762;37.698;2023-03-31T09:48:49;4.75;;;1.83;;
75781;SDS011;64400;44.762;37.698;2023-03-31T09:51:22;8.45;;;2.10;;
75781;SDS011;64400;44.762;37.698;2023-03-31T09:54:11;7.50;;;2.30;;
75781;SDS011;64400;44.762;37.698;2023-03-31T09:57:00;4.18;;;1.70;;
75781;SDS011;64400;44.762;37.698;2023-03-31T10:02:17;2.85;;;1.65;;
75781;SDS011;64400;44.762;37.698;2023-03-31T10:04:52;4.05;;;1.90;;
75781;SDS011;64400;44.762;37.698;2023-03-31T10:07:22;7.38;;;2.72;;
75781;SDS011;64400;44.762;37.698;2023-03-31T10:09:52;4.70;;;2.17;;
75781;SDS011;64400;44.762;37.698;2023-03-31T10:12:22;4.60;;;1.42;;
75781;SDS011;64400;44.762;37.698;2023-03-31T10:15:10;3.08;;;1.40;;
75781;SDS011;64400;44.762;37.698;2023-03-31T10:17:44;8.23;;;1.75;;
75781;SDS011;64400;44.762;37.698;2023-03-31T10:20:37;5.32;;;1.52;;
75781;SDS011;64400;44.762;37.698;2023-03-31T10:23:28;3.97;;;1.73;;
75781;SDS011;64400;44.762;37.698;2023-03-31T10:25:58;3.22;;;1.50;;
75781;SDS011;64400;44.762;37.698;2023-03-31T10:28:30;5.55;;;1.52;;
75781;SDS011;64400;44.762;37.698;2023-03-31T10:31:00;3.60;;;1.52;;
75781;SDS011;64400;44.762;37.698;2023-03-31T10:33:30;5.13;;;1.55;;
75781;SDS011;64400;44.762;37.698;2023-03-31T10:36:08;4.97;;;1.60;;
75781;SDS011;64400;44.762;37.698;2023-03-31T10:38:47;4.47;;;1.90;;
75781;SDS011;64400;44.762;37.698;2023-03-31T10:41:17;3.25;;;1.58;;
75781;SDS011;64400;44.762;37.698;2023-03-31T10:43:48;4.97;;;1.38;;
75781;SDS011;64400;44.762;37.698;2023-03-31T10:46:17;5.25;;;1.40;;
75781;SDS011;64400;44.762;37.698;2023-03-31T10:48:52;5.72;;;2.05;;
75781;SDS011;64400;44.762;37.698;2023-03-31T10:51:24;8.93;;;1.95;;
75781;SDS011;64400;44.762;37.698;2023-03-31T10:54:00;6.28;;;2.15;;
75781;SDS011;64400;44.762;37.698;2023-03-31T10:56:41;5.95;;;1.75;;
75781;SDS011;64400;44.762;37.698;2023-03-31T10:59:18;4.43;;;1.67;;
75781;SDS011;64400;44.762;37.698;2023-03-31T12:12:12;6.50;;;2.47;;
75781;SDS011;64400;44.762;37.698;2023-03-31T12:15:02;6.95;;;1.95;;
75781;SDS011;64400;44.762;37.698;2023-03-31T12:17:31;5.53;;;1.50;;
75781;SDS011;64400;44.762;37.698;2023-03-31T12:20:03;4.05;;;1.77;;
75781;SDS011;64400;44.762;37.698;2023-03-31T12:22:38;6.50;;;1.52;;
75781;SDS011;64400;44.762;37.698;2023-03-31T12:25:14;5.10;;;1.77;;
75781;SDS011;64400;44.762;37.698;2023-03-31T12:27:46;2.95;;;1.60;;
75781;SDS011;64400;44.762;37.698;2023-03-31T12:30:21;7.53;;;2.10;;
75781;SDS011;64400;44.762;37.698;2023-03-31T12:33:02;6.18;;;1.50;;
75781;SDS011;64400;44.762;37.698;2023-03-31T12:41:14;4.60;;;1.63;;
75781;SDS011;64400;44.762;37.698;2023-03-31T12:46:51;5.85;;;2.03;;
75781;SDS011;64400;44.762;37.698;2023-03-31T12:49:38;5.45;;;1.52;;
75781;SDS011;64400;44.762;37.698;2023-03-31T12:52:25;3.33;;;1.25;;
75781;SDS011;64400;44.762;37.698;2023-03-31T13:03:36;6.40;;;2.17;;
75781;SDS011;64400;44.762;37.698;2023-03-31T13:06:09;4.25;;;1.75;;
75781;SDS011;64400;44.762;37.698;2023-03-31T13:09:01;6.57;;;1.90;;
75781;SDS011;64400;44.762;37.698;2023-03-31T13:11:38;5.05;;;1.30;;
75781;SDS011;64400;44.762;37.698;2023-03-31T13:23:03;3.75;;;2.08;;
75781;SDS011;64400;44.762;37.698;2023-03-31T13:25:52;4.07;;;2.08;;
75781;SDS011;64400;44.762;37.698;2023-03-31T13:41:35;5.05;;;1.80;;
75781;SDS011;64400;44.762;37.698;2023-03-31T13:47:17;5.32;;;1.70;;
75781;SDS011;64400;44.762;37.698;2023-03-31T13:53:28;6.85;;;3.00;;
75781;SDS011;64400;44.762;37.698;2023-03-31T13:56:03;4.93;;;1.70;;
75781;SDS011;64400;44.762;37.698;2023-03-31T14:01:44;8.15;;;2.88;;
75781;SDS011;64400;44.762;37.698;2023-03-31T14:07:15;3.70;;;1.42;;
75781;SDS011;64400;44.762;37.698;2023-03-31T14:09:49;6.95;;;2.90;;
75781;SDS011;64400;44.762;37.698;2023-03-31T14:12:30;7.70;;;2.45;;
75781;SDS011;64400;44.762;37.698;2023-03-31T14:15:00;4.13;;;2.00;;
75781;SDS011;64400;44.762;37.698;2023-03-31T14:17:29;9.75;;;2.90;;
75781;SDS011;64400;44.762;37.698;2023-03-31T14:20:34;5.60;;;1.70;;
75781;SDS011;64400;44.762;37.698;2023-03-31T14:35:42;5.60;;;1.73;;
75781;SDS011;64400;44.762;37.698;2023-03-31T14:38:14;7.88;;;2.40;;
75781;SDS011;64400;44.762;37.698;2023-03-31T14:40:49;5.85;;;1.85;;
75781;SDS011;64400;44.762;37.698;2023-03-31T14:43:28;6.13;;;2.50;;
75781;SDS011;64400;44.762;37.698;2023-03-31T14:46:00;4.45;;;2.30;;
75781;SDS011;64400;44.762;37.698;2023-03-31T14:48:31;4.97;;;1.80;;
75781;SDS011;64400;44.762;37.698;2023-03-31T14:51:01;7.05;;;2.00;;
75781;SDS011;64400;44.762;37.698;2023-03-31T14:53:30;3.38;;;1.55;;
75781;SDS011;64400;44.762;37.698;2023-03-31T14:56:00;4.13;;;1.55;;
75781;SDS011;64400;44.762;37.698;2023-03-31T14:58:33;6.20;;;2.63;;
75781;SDS011;64400;44.762;37.698;2023-03-31T15:01:05;7.00;;;3.28;;
75781;SDS011;64400;44.762;37.698;2023-03-31T15:04:21;5.82;;;1.88;;
75781;SDS011;64400;44.762;37.698;2023-03-31T15:07:05;4.80;;;1.83;;
75781;SDS011;64400;44.762;37.698;2023-03-31T15:09:33;4.53;;;1.98;;
75781;SDS011;64400;44.762;37.698;2023-03-31T15:12:11;3.08;;;1.42;;
75781;SDS011;64400;44.762;37.698;2023-03-31T15:14:43;5.70;;;2.75;;
75781;SDS011;64400;44.762;37.698;2023-03-31T15:17:21;4.97;;;2.53;;
75781;SDS011;64400;44.762;37.698;2023-03-31T15:20:19;6.13;;;2.42;;
75781;SDS011;64400;44.762;37.698;2023-03-31T15:36:26;6.78;;;3.55;;
75781;SDS011;64400;44.762;37.698;2023-03-31T15:38:57;7.35;;;3.15;;
75781;SDS011;64400;44.762;37.698;2023-03-31T15:41:32;6.13;;;2.45;;
75781;SDS011;64400;44.762;37.698;2023-03-31T15:44:04;8.02;;;2.47;;
75781;SDS011;64400;44.762;37.698;2023-03-31T16:19:53;6.15;;;2.45;;
75781;SDS011;64400;44.762;37.698;2023-03-31T16:22:36;11.18;;;3.05;;
75781;SDS011;64400;44.762;37.698;2023-03-31T16:25:17;3.95;;;2.08;;
75781;SDS011;64400;44.762;37.698;2023-03-31T16:28:08;6.38;;;2.03;;
75781;SDS011;64400;44.762;37.698;2023-03-31T16:34:03;8.20;;;2.80;;
75781;SDS011;64400;44.762;37.698;2023-03-31T16:36:33;6.05;;;2.50;;
75781;SDS011;64400;44.762;37.698;2023-03-31T16:39:02;8.85;;;2.80;;
75781;SDS011;64400;44.762;37.698;2023-03-31T16:41:32;8.40;;;2.05;;
75781;SDS011;64400;44.762;37.698;2023-03-31T16:51:20;6.30;;;2.08;;
75781;SDS011;64400;44.762;37.698;2023-03-31T16:54:12;7.13;;;2.65;;
75781;SDS011;64400;44.762;37.698;2023-03-31T16:56:59;2.63;;;1.38;;
75781;SDS011;64400;44.762;37.698;2023-03-31T17:05:17;4.03;;;1.90;;
75781;SDS011;64400;44.762;37.698;2023-03-31T17:11:11;6.80;;;2.72;;
75781;SDS011;64400;44.762;37.698;2023-03-31T17:14:06;6.10;;;2.42;;
75781;SDS011;64400;44.762;37.698;2023-03-31T17:16:49;9.13;;;2.08;;
75781;SDS011;64400;44.762;37.698;2023-03-31T17:30:10;3.35;;;1.50;;
75781;SDS011;64400;44.762;37.698;2023-03-31T17:32:40;5.25;;;2.20;;
75781;SDS011;64400;44.762;37.698;2023-03-31T17:38:01;7.90;;;2.40;;
75781;SDS011;64400;44.762;37.698;2023-03-31T17:44:17;4.60;;;1.83;;
75781;SDS011;64400;44.762;37.698;2023-03-31T17:46:45;5.05;;;2.47;;
75781;SDS011;64400;44.762;37.698;2023-03-31T17:49:15;5.55;;;1.80;;
75781;SDS011;64400;44.762;37.698;2023-03-31T17:51:44;5.38;;;2.20;;
75781;SDS011;64400;44.762;37.698;2023-03-31T17:54:12;3.95;;;1.80;;
75781;SDS011;64400;44.762;37.698;2023-03-31T17:59:32;4.70;;;2.28;;
75781;SDS011;64400;44.762;37.698;2023-03-31T18:02:00;5.82;;;1.73;;
75781;SDS011;64400;44.762;37.698;2023-03-31T18:04:29;7.90;;;2.10;;
75781;SDS011;64400;44.762;37.698;2023-03-31T18:06:58;4.35;;;1.45;;
75781;SDS011;64400;44.762;37.698;2023-03-31T18:09:26;7.68;;;2.17;;
75781;SDS011;64400;44.762;37.698;2023-03-31T18:17:34;4.90;;;2.20;;
75781;SDS011;64400;44.762;37.698;2023-03-31T18:23:18;7.38;;;2.30;;
75781;SDS011;64400;44.762;37.698;2023-03-31T18:25:47;5.40;;;2.45;;
75781;SDS011;64400;44.762;37.698;2023-03-31T18:28:16;8.30;;;2.05;;
75781;SDS011;64400;44.762;37.698;2023-03-31T18:30:44;3.88;;;1.60;;
75781;SDS011;64400;44.762;37.698;2023-03-31T18:33:13;3.65;;;1.50;;
75781;SDS011;64400;44.762;37.698;2023-03-31T18:35:42;5.03;;;2.10;;
75781;SDS011;64400;44.762;37.698;2023-03-31T18:38:11;2.92;;;1.33;;
75781;SDS011;64400;44.762;37.698;2023-03-31T18:40:45;3.53;;;1.48;;
75781;SDS011;64400;44.762;37.698;2023-03-31T18:43:16;6.45;;;1.65;;
75781;SDS011;64400;44.762;37.698;2023-03-31T18:45:53;4.53;;;2.05;;
75781;SDS011;64400;44.762;37.698;2023-03-31T18:48:23;8.95;;;2.85;;
75781;SDS011;64400;44.762;37.698;2023-03-31T18:50:53;8.10;;;2.75;;
75781;SDS011;64400;44.762;37.698;2023-03-31T18:56:39;3.05;;;1.38;;
75781;SDS011;64400;44.762;37.698;2023-03-31T18:59:07;4.20;;;1.83;;
75781;SDS011;64400;44.762;37.698;2023-03-31T19:01:36;7.70;;;2.80;;
75781;SDS011;64400;44.762;37.698;2023-03-31T19:04:06;7.28;;;2.55;;
75781;SDS011;64400;44.762;37.698;2023-03-31T19:06:37;8.18;;;2.50;;
75781;SDS011;64400;44.762;37.698;2023-03-31T19:09:06;5.85;;;2.38;;
75781;SDS011;64400;44.762;37.698;2023-03-31T19:11:35;4.85;;;2.25;;
75781;SDS011;64400;44.762;37.698;2023-03-31T19:14:04;5.35;;;1.60;;
75781;SDS011;64400;44.762;37.698;2023-03-31T19:16:34;4.05;;;1.40;;
75781;SDS011;64400;44.762;37.698;2023-03-31T19:19:12;2.88;;;1.50;;
75781;SDS011;64400;44.762;37.698;2023-03-31T19:21:40;3.97;;;1.65;;
75781;SDS011;64400;44.762;37.698;2023-03-31T19:24:08;6.47;;;2.50;;
75781;SDS011;64400;44.762;37.698;2023-03-31T19:26:43;4.95;;;2.10;;
75781;SDS011;64400;44.762;37.698;2023-03-31T19:29:11;3.30;;;1.75;;
75781;SDS011;64400;44.762;37.698;2023-03-31T19:31:48;3.58;;;1.60;;
75781;SDS011;64400;44.762;37.698;2023-03-31T19:34:17;2.70;;;1.48;;
75781;SDS011;64400;44.762;37.698;2023-03-31T19:37:30;4.28;;;1.42;;
75781;SDS011;64400;44.762;37.698;2023-03-31T19:39:58;5.65;;;2.03;;
75781;SDS011;64400;44.762;37.698;2023-03-31T19:42:33;5.28;;;1.73;;
75781;SDS011;64400;44.762;37.698;2023-03-31T19:45:04;2.40;;;1.33;;
75781;SDS011;64400;44.762;37.698;2023-03-31T19:47:33;3.28;;;1.60;;
75781;SDS011;64400;44.762;37.698;2023-03-31T19:50:09;4.85;;;1.80;;
75781;SDS011;64400;44.762;37.698;2023-03-31T19:52:45;4.65;;;2.10;;
75781;SDS011;64400;44.762;37.698;2023-03-31T19:55:17;6.00;;;2.20;;
75781;SDS011;64400;44.762;37.698;2023-03-31T19:57:47;4.00;;;2.00;;
75781;SDS011;64400;44.762;37.698;2023-03-31T20:00:16;3.53;;;1.83;;
75781;SDS011;64400;44.762;37.698;2023-03-31T20:02:46;5.13;;;1.90;;
75781;SDS011;64400;44.762;37.698;2023-03-31T20:05:15;5.40;;;2.08;;
75781;SDS011;64400;44.762;37.698;2023-03-31T20:07:46;4.25;;;2.00;;
75781;SDS011;64400;44.762;37.698;2023-03-31T20:10:14;3.65;;;1.70;;
75781;SDS011;64400;44.762;37.698;2023-03-31T20:12:46;4.97;;;1.73;;
75781;SDS011;64400;44.762;37.698;2023-03-31T20:15:18;2.35;;;1.10;;
75781;SDS011;64400;44.762;37.698;2023-03-31T20:17:47;2.72;;;1.35;;
75781;SDS011;64400;44.762;37.698;2023-03-31T20:20:15;3.45;;;1.27;;
75781;SDS011;64400;44.762;37.698;2023-03-31T20:22:46;2.80;;;1.27;;
75781;SDS011;64400;44.762;37.698;2023-03-31T20:25:15;4.75;;;1.50;;
75781;SDS011;64400;44.762;37.698;2023-03-31T20:27:50;4.90;;;2.05;;
75781;SDS011;64400;44.762;37.698;2023-03-31T20:30:20;3.72;;;1.35;;
75781;SDS011;64400;44.762;37.698;2023-03-31T20:32:49;4.28;;;1.55;;
75781;SDS011;64400;44.762;37.698;2023-03-31T20:35:18;4.78;;;1.55;;
75781;SDS011;64400;44.762;37.698;2023-03-31T20:37:46;2.75;;;1.00;;
75781;SDS011;64400;44.762;37.698;2023-03-31T20:40:21;4.28;;;1.45;;
75781;SDS011;64400;44.762;37.698;2023-03-31T20:42:50;3.72;;;1.20;;
75781;SDS011;64400;44.762;37.698;2023-03-31T20:48:49;7.47;;;1.90;;
75781;SDS011;64400;44.762;37.698;2023-03-31T20:51:21;4.03;;;1.80;;
75781;SDS011;64400;44.762;37.698;2023-03-31T20:53:57;3.38;;;1.58;;
75781;SDS011;64400;44.762;37.698;2023-03-31T20:56:32;3.20;;;1.63;;
75781;SDS011;64400;44.762;37.698;2023-03-31T20:59:02;6.35;;;1.90;;
75781;SDS011;64400;44.762;37.698;2023-03-31T21:01:33;3.65;;;2.08;;
75781;SDS011;64400;44.762;37.698;2023-03-31T21:04:03;4.65;;;1.73;;
75781;SDS011;64400;44.762;37.698;2023-03-31T21:06:37;8.73;;;1.70;;
75781;SDS011;64400;44.762;37.698;2023-03-31T21:09:09;8.15;;;2.20;;
75781;SDS011;64400;44.762;37.698;2023-03-31T21:11:38;4.28;;;1.73;;
75781;SDS011;64400;44.762;37.698;2023-03-31T21:14:12;5.10;;;2.33;;
75781;SDS011;64400;44.762;37.698;2023-03-31T21:16:42;5.18;;;1.98;;
75781;SDS011;64400;44.762;37.698;2023-03-31T21:19:11;4.03;;;2.10;;
75781;SDS011;64400;44.762;37.698;2023-03-31T21:24:54;3.97;;;1.98;;
75781;SDS011;64400;44.762;37.698;2023-03-31T21:27:23;4.32;;;1.95;;
75781;SDS011;64400;44.762;37.698;2023-03-31T21:29:51;7.18;;;2.00;;
75781;SDS011;64400;44.762;37.698;2023-03-31T21:32:18;4.10;;;1.73;;
75781;SDS011;64400;44.762;37.698;2023-03-31T21:34:47;5.35;;;1.75;;
75781;SDS011;64400;44.762;37.698;2023-03-31T21:37:15;5.38;;;1.90;;
75781;SDS011;64400;44.762;37.698;2023-03-31T21:39:43;6.07;;;1.80;;
75781;SDS011;64400;44.762;37.698;2023-03-31T21:42:10;4.63;;;1.67;;
75781;SDS011;64400;44.762;37.698;2023-03-31T21:44:39;7.50;;;1.70;;